Time;durP1;ratioP1;P1;durP2;ratioP2;P2;SDS_P1;SDS_P2;PMS_P1;PMS_P2;Temp;Humidity;BMP_temperature;BMP_pressure;BME280_temperature;BME280_humidity;BME280_pressure;Samples;Min_cycle;Max_cycle;Signal;HPM_P1;HPM_P2
2022/10/23 00:01:16;;;;;;;;;;;;;;;5.05;77.99;99869.50;5105056;28;19936;-65
2022/10/23 00:03:42;;;;;;;;;;;;;;;5.03;77.84;99866.22;5104586;28;20304;-65
2022/10/23 00:06:08;;;;;;;;;;;;;;;4.96;77.93;99864.44;5104406;28;19928;-65
2022/10/23 00:08:34;;;;;;;;;;;;;;;4.94;77.97;99855.72;5102416;28;19980;-65
2022/10/23 00:10:59;;;;;;;;;;;;;;;4.92;78.10;99855.13;5096587;28;19963;-65
2022/10/23 00:13:25;;;;;;;;;;;;;;;4.93;78.16;99858.69;5085267;28;19928;-65
2022/10/23 00:15:51;;;;;;;;;;;;;;;4.92;78.11;99851.63;5086349;28;20026;-64
2022/10/23 00:18:18;;;;;;;;;;;;;;;4.91;78.22;99855.34;5088276;28;19928;-63
2022/10/23 00:20:43;;;;;;;;;;;;;;;4.86;78.06;99847.13;5085239;28;19932;-63
2022/10/23 00:23:09;;;;;;;;;;;;;;;4.83;78.06;99845.69;5096389;28;20291;-64
2022/10/23 00:25:34;;;;;;;;;;;;;;;4.84;78.02;99841.97;5104095;28;20024;-65
2022/10/23 00:28:00;;;;;;;;;;;;;;;4.84;78.02;99844.66;5106874;28;19950;-65
2022/10/23 00:30:26;;;;;;;;;;;;;;;4.82;77.90;99835.91;5106224;28;20426;-64
2022/10/23 00:32:52;;;;;;;;;;;;;;;4.75;78.06;99832.53;5084382;28;20307;-65
2022/10/23 00:35:20;;;;;;;;;;;;;;;4.64;78.33;99820.63;5105412;28;19967;-64
2022/10/23 00:37:46;;;;;;;;;;;;;;;4.67;78.50;99822.84;5105584;28;19934;-64
2022/10/23 00:40:12;;;;;;;;;;;;;;;4.67;78.51;99818.25;5104218;28;19931;-64
2022/10/23 00:42:38;;;;;;;;;;;;;;;4.68;78.59;99817.22;5104340;28;20318;-64
2022/10/23 00:45:13;;;;;;;;;;;;;;;4.67;78.24;99814.75;5108803;28;19932;-64
2022/10/23 00:47:39;;;;;;;;;;;;;;;4.70;78.25;99810.75;5107680;28;19928;-64
2022/10/23 00:50:05;;;;;;;;;;;;;;;4.67;78.10;99806.59;5110133;28;20030;-64
2022/10/23 00:52:33;;;;;;;;;;;;;;;4.67;78.17;99807.41;5107787;28;19927;-64
2022/10/23 00:55:00;;;;;;;;;;;;;;;4.70;77.93;99808.03;5105864;28;19927;-64
2022/10/23 00:57:25;;;;;;;;;;;;;;;4.66;77.85;99805.78;5107701;28;20031;-63
2022/10/23 00:59:51;;;;;;;;;;;;;;;4.64;77.91;99796.25;5109261;28;20026;-63
2022/10/23 01:02:17;;;;;;;;;;;;;;;4.62;77.91;99803.78;5104984;28;19981;-64
2022/10/23 01:04:43;;;;;;;;;;;;;;;4.62;77.79;99792.97;5105627;28;20398;-64
2022/10/23 01:07:12;;;;;;;;;;;;;;;4.60;77.84;99792.34;5101948;28;19928;-63
2022/10/23 01:09:44;;;;;;;;;;;;;;;4.59;77.79;99794.25;5085897;28;20009;-64
2022/10/23 01:12:14;;;;;;;;;;;;;;;4.57;77.68;99790.94;5085660;28;19928;-63
2022/10/23 01:14:45;;;;;;;;;;;;;;;4.55;77.80;99782.25;5102156;28;20414;-64
2022/10/23 01:17:16;;;;;;;;;;;;;;;4.48;77.93;99773.41;5106860;28;19927;-63
2022/10/23 01:19:50;;;;;;;;;;;;;;;4.43;78.37;99774.09;5050122;28;19932;-64
2022/10/23 01:22:26;;;;;;;;;;;;;;;4.40;78.38;99767.28;5066525;28;20204;-64
2022/10/23 01:24:57;;;;;;;;;;;;;;;4.35;78.52;99771.75;5067093;28;19932;-64
2022/10/23 01:27:25;;;;;;;;;;;;;;;4.25;78.18;99765.00;5077689;28;19927;-64
2022/10/23 01:29:58;;;;;;;;;;;;;;;4.15;78.54;99763.94;5104865;28;19928;-64
2022/10/23 01:32:34;;;;;;;;;;;;;;;4.07;78.82;99762.41;5104537;28;19932;-64
2022/10/23 01:35:02;;;;;;;;;;;;;;;4.01;78.91;99755.22;5106596;28;20022;-64
2022/10/23 01:37:31;;;;;;;;;;;;;;;3.91;79.13;99758.50;5105759;28;19935;-64
2022/10/23 01:40:01;;;;;;;;;;;;;;;3.78;79.69;99754.94;5088494;28;20425;-64
2022/10/23 01:42:32;;;;;;;;;;;;;;;3.69;80.12;99761.72;5103905;28;20017;-64
2022/10/23 01:44:59;;;;;;;;;;;;;;;3.63;80.48;99757.25;5102368;28;19951;-63
2022/10/23 01:47:34;;;;;;;;;;;;;;;3.60;80.49;99753.09;5104800;28;19932;-63
2022/10/23 01:50:07;;;;;;;;;;;;;;;3.57;80.41;99753.56;5101552;28;20022;-63
2022/10/23 01:52:34;;;;;;;;;;;;;;;3.49;80.66;99748.47;5102512;28;19997;-64
2022/10/23 01:55:04;;;;;;;;;;;;;;;3.42;80.93;99747.75;5102977;28;19935;-64
2022/10/23 01:57:34;;;;;;;;;;;;;;;3.34;81.14;99747.00;5103744;28;19934;-64
2022/10/23 02:00:02;;;;;;;;;;;;;;;3.32;81.43;99751.00;5104726;28;20345;-63
2022/10/23 02:02:31;;;;;;;;;;;;;;;3.25;81.64;99745.69;5103316;28;19935;-64
2022/10/23 02:04:59;;;;;;;;;;;;;;;3.27;81.66;99746.28;5106135;28;19955;-64
2022/10/23 02:07:25;;;;;;;;;;;;;;;3.24;81.82;99733.22;5104675;28;19963;-64
2022/10/23 02:09:51;;;;;;;;;;;;;;;3.20;82.04;99743.66;5104042;28;20403;-65
2022/10/23 02:12:23;;;;;;;;;;;;;;;3.23;82.17;99739.69;5104359;28;20379;-65
2022/10/23 02:14:53;;;;;;;;;;;;;;;3.21;82.32;99733.69;5101977;28;19928;-65
2022/10/23 02:17:20;;;;;;;;;;;;;;;3.15;82.49;99740.81;5102914;28;19935;-64
2022/10/23 02:19:48;;;;;;;;;;;;;;;3.17;82.81;99754.09;5103036;28;19963;-65
2022/10/23 02:22:17;;;;;;;;;;;;;;;3.12;82.79;99750.19;5104476;28;19993;-65
2022/10/23 02:24:48;;;;;;;;;;;;;;;3.08;83.13;99746.31;5102796;28;20412;-65
2022/10/23 02:27:16;;;;;;;;;;;;;;;3.04;83.29;99739.69;5104424;28;19936;-65
2022/10/23 02:29:44;;;;;;;;;;;;;;;3.00;83.49;99734.97;5102640;28;19974;-65
2022/10/23 02:32:13;;;;;;;;;;;;;;;2.97;83.73;99742.50;5104217;28;20467;-63
2022/10/23 02:34:39;;;;;;;;;;;;;;;2.97;83.90;99738.94;5103412;28;20316;-65
2022/10/23 02:37:09;;;;;;;;;;;;;;;2.95;84.09;99739.16;5106213;28;19986;-65
2022/10/23 02:39:35;;;;;;;;;;;;;;;2.89;84.31;99740.09;5104037;28;19935;-65
2022/10/23 02:42:06;;;;;;;;;;;;;;;2.87;84.79;99736.78;5104923;28;20361;-65
2022/10/23 02:44:37;;;;;;;;;;;;;;;2.88;84.91;99738.44;5100927;28;19935;-65
2022/10/23 02:47:09;;;;;;;;;;;;;;;2.88;85.00;99738.44;5085635;28;19938;-69
2022/10/23 02:49:39;;;;;;;;;;;;;;;2.89;85.38;99731.13;5103094;28;20373;-65
2022/10/23 02:52:13;;;;;;;;;;;;;;;2.85;85.03;99728.09;5105243;28;19927;-66
2022/10/23 02:54:45;;;;;;;;;;;;;;;2.78;85.24;99728.16;5083254;28;19996;-65
2022/10/23 02:57:15;;;;;;;;;;;;;;;2.75;85.67;99725.06;5083877;28;19928;-65
2022/10/23 02:59:46;;;;;;;;;;;;;;;2.73;85.68;99719.88;5081769;28;20319;-65
2022/10/23 03:02:17;;;;;;;;;;;;;;;2.72;86.10;99725.53;5086393;28;19928;-65
2022/10/23 03:04:44;;;;;;;;;;;;;;;2.68;86.01;99720.59;5085615;28;19938;-65
2022/10/23 03:07:11;;;;;;;;;;;;;;;2.69;86.21;99718.69;5107000;28;19934;-65
2022/10/23 03:09:37;;;;;;;;;;;;;;;2.67;86.45;99708.13;5106474;28;19973;-66
2022/10/23 03:12:03;;;;;;;;;;;;;;;2.65;86.57;99712.94;5090281;28;19932;-66
2022/10/23 03:14:31;;;;;;;;;;;;;;;2.61;86.56;99714.41;5107220;28;20360;-65
2022/10/23 03:16:57;;;;;;;;;;;;;;;2.62;86.94;99709.84;5109710;28;19927;-66
2022/10/23 03:19:24;;;;;;;;;;;;;;;2.57;86.72;99710.53;5091110;28;20395;-66
2022/10/23 03:21:51;;;;;;;;;;;;;;;2.54;87.05;99708.28;5106581;28;20012;-64
2022/10/23 03:24:19;;;;;;;;;;;;;;;2.54;87.28;99706.38;5105558;28;19928;-64
2022/10/23 03:26:45;;;;;;;;;;;;;;;2.50;87.08;99705.19;5106822;28;20038;-62
2022/10/23 03:29:11;;;;;;;;;;;;;;;2.49;87.46;99702.69;5108862;28;19928;-63
2022/10/23 03:31:42;;;;;;;;;;;;;;;2.48;87.71;99706.44;5105617;28;19927;-64
2022/10/23 03:34:10;;;;;;;;;;;;;;;2.46;87.92;99701.28;5105823;28;20030;-63
2022/10/23 03:36:38;;;;;;;;;;;;;;;2.46;87.94;99701.28;5107241;28;19932;-63
2022/10/23 03:39:05;;;;;;;;;;;;;;;2.43;87.88;99698.22;5088431;28;19989;-64
2022/10/23 03:41:31;;;;;;;;;;;;;;;2.44;88.07;99705.25;5105554;28;19981;-64
2022/10/23 03:43:57;;;;;;;;;;;;;;;2.41;88.10;99699.25;5104438;28;19931;-64
2022/10/23 03:46:22;;;;;;;;;;;;;;;2.40;88.07;99699.47;5105612;28;19928;-64
2022/10/23 03:48:53;;;;;;;;;;;;;;;2.38;88.16;99690.78;5103563;28;19928;-64
2022/10/23 03:51:19;;;;;;;;;;;;;;;2.40;88.32;99699.47;5090004;28;19928;-64
2022/10/23 03:53:44;;;;;;;;;;;;;;;2.39;88.21;99682.47;5106273;28;19935;-64
2022/10/23 03:56:12;;;;;;;;;;;;;;;2.34;88.25;99685.03;5085726;28;19928;-64
2022/10/23 03:58:38;;;;;;;;;;;;;;;2.31;88.51;99679.25;5086766;28;19971;-64
2022/10/23 04:01:04;;;;;;;;;;;;;;;2.30;88.53;99683.81;5087212;28;19971;-63
2022/10/23 04:03:30;;;;;;;;;;;;;;;2.30;88.77;99677.59;5085318;28;19935;-64
2022/10/23 04:05:55;;;;;;;;;;;;;;;2.28;88.92;99675.09;5086076;28;19928;-64
2022/10/23 04:08:21;;;;;;;;;;;;;;;2.29;89.03;99673.25;5108218;28;19938;-63
2022/10/23 04:10:50;;;;;;;;;;;;;;;2.25;88.68;99670.97;5105389;28;19927;-63
2022/10/23 04:13:20;;;;;;;;;;;;;;;2.24;88.93;99665.81;5105122;28;19928;-63
2022/10/23 04:15:47;;;;;;;;;;;;;;;2.23;89.08;99673.06;5088744;28;20424;-64
2022/10/23 04:18:12;;;;;;;;;;;;;;;2.20;88.98;99670.00;5103378;28;20765;-64
2022/10/23 04:20:38;;;;;;;;;;;;;;;2.18;89.21;99672.91;5108963;28;19934;-65
2022/10/23 04:23:04;;;;;;;;;;;;;;;2.22;89.27;99673.31;5105188;28;19931;-63
2022/10/23 04:25:33;;;;;;;;;;;;;;;2.21;89.21;99666.25;5109225;28;19978;-64
2022/10/23 04:27:58;;;;;;;;;;;;;;;2.22;89.26;99671.41;5106731;28;19927;-65
2022/10/23 04:30:25;;;;;;;;;;;;;;;2.24;89.26;99668.50;5087622;28;19935;-65
2022/10/23 04:32:51;;;;;;;;;;;;;;;2.23;89.01;99659.56;5102164;28;19934;-64
2022/10/23 04:35:17;;;;;;;;;;;;;;;2.23;89.23;99651.47;5106188;28;20019;-66
2022/10/23 04:37:43;;;;;;;;;;;;;;;2.22;89.02;99662.53;5107305;28;19986;-65
2022/10/23 04:40:09;;;;;;;;;;;;;;;2.23;89.20;99650.69;5105955;28;19928;-65
2022/10/23 04:42:36;;;;;;;;;;;;;;;2.24;89.11;99650.44;5105049;28;19976;-65
2022/10/23 04:45:02;;;;;;;;;;;;;;;2.28;89.01;99642.72;5106291;28;19931;-66
2022/10/23 04:47:31;;;;;;;;;;;;;;;2.31;88.89;99647.66;5107087;28;20413;-65
2022/10/23 04:49:58;;;;;;;;;;;;;;;2.32;88.76;99649.31;5104954;28;19928;-65
2022/10/23 04:52:42;;;;;;;;;;;;;;;2.33;88.63;99642.06;5105584;28;19938;-65
2022/10/23 04:55:47;;;;;;;;;;;;;;;2.40;88.49;99642.81;5077288;28;20006;-65
2022/10/23 04:58:19;;;;;;;;;;;;;;;2.38;88.34;99643.03;5084207;28;20744;-64
2022/10/23 05:00:45;;;;;;;;;;;;;;;2.37;88.55;99643.25;5068407;28;19928;-64
2022/10/23 05:03:17;;;;;;;;;;;;;;;2.37;88.50;99638.69;5086321;28;19939;-65
2022/10/23 05:05:43;;;;;;;;;;;;;;;2.48;88.54;99642.50;5121714;27;19932;-65
2022/10/23 05:08:35;;;;;;;;;;;;;;;2.64;88.23;99645.66;5070807;28;19963;-65
2022/10/23 05:11:29;;;;;;;;;;;;;;;2.83;87.16;99649.97;5082855;28;19935;-64
2022/10/23 05:13:55;;;;;;;;;;;;;;;2.91;86.55;99651.53;5079472;28;19928;-64
2022/10/23 05:16:25;;;;;;;;;;;;;;;3.01;86.15;99640.19;5091461;28;20282;-64
2022/10/23 05:18:53;;;;;;;;;;;;;;;3.14;85.72;99651.88;5102772;28;19935;-63
2022/10/23 05:21:21;;;;;;;;;;;;;;;3.25;85.27;99638.41;5085949;28;20013;-63
2022/10/23 05:23:48;;;;;;;;;;;;;;;3.35;84.56;99639.72;5101862;28;19997;-63
2022/10/23 05:26:14;;;;;;;;;;;;;;;3.41;84.29;99646.91;5104610;28;20463;-63
2022/10/23 05:28:43;;;;;;;;;;;;;;;3.46;83.79;99648.91;5103256;28;20014;-63
2022/10/23 05:31:13;;;;;;;;;;;;;;;3.49;83.62;99643.88;5105846;28;19928;-64
2022/10/23 05:33:40;;;;;;;;;;;;;;;3.51;83.42;99636.34;5086278;28;19998;-63
2022/10/23 05:36:10;;;;;;;;;;;;;;;3.55;83.26;99634.03;5103816;28;19935;-64
2022/10/23 05:38:36;;;;;;;;;;;;;;;3.58;82.96;99632.72;5073098;28;20017;-64
2022/10/23 05:41:09;;;;;;;;;;;;;;;3.62;82.94;99632.03;5086892;28;20041;-64
2022/10/23 05:43:35;;;;;;;;;;;;;;;3.68;82.86;99627.56;5104662;28;20038;-63
2022/10/23 05:46:38;;;;;;;;;;;;;;;3.73;82.34;99632.28;5104943;28;19928;-66
2022/10/23 05:49:16;;;;;;;;;;;;;;;3.78;82.24;99629.69;5070531;28;19928;-63
2022/10/23 05:52:04;;;;;;;;;;;;;;;3.88;81.81;99629.09;5093023;28;19928;-63
2022/10/23 05:55:02;;;;;;;;;;;;;;;3.97;81.66;99620.41;5102906;28;20322;-65
2022/10/23 05:58:00;;;;;;;;;;;;;;;4.09;80.90;99617.72;5091781;28;19956;-65
2022/10/23 06:00:46;;;;;;;;;;;;;;;4.09;80.67;99625.00;5107000;28;19928;-67
2022/10/23 06:03:31;;;;;;;;;;;;;;;4.15;80.18;99612.41;5105565;28;19934;-65
2022/10/23 06:05:57;;;;;;;;;;;;;;;4.20;80.46;99613.34;5086413;28;19928;-65
2022/10/23 06:08:34;;;;;;;;;;;;;;;4.25;80.16;99616.16;5086687;28;19982;-65
2022/10/23 06:11:04;;;;;;;;;;;;;;;4.24;79.89;99613.69;5102533;28;19927;-66
2022/10/23 06:13:31;;;;;;;;;;;;;;;4.21;79.99;99606.03;5103147;28;20429;-65
2022/10/23 06:15:56;;;;;;;;;;;;;;;4.24;79.42;99605.56;5088620;28;19932;-65
2022/10/23 06:18:24;;;;;;;;;;;;;;;4.26;79.77;99606.97;5086286;28;19928;-65
2022/10/23 06:21:04;;;;;;;;;;;;;;;4.09;79.35;99579.81;5101370;28;19928;-63
2022/10/23 06:23:30;;;;;;;;;;;;;;;4.20;79.66;99601.69;5083043;28;19928;-63
2022/10/23 06:26:13;;;;;;;;;;;;;;;4.31;79.64;99594.63;5104002;28;19934;-63
2022/10/23 06:28:50;;;;;;;;;;;;;;;4.48;79.37;99587.41;5106366;28;20685;-65
2022/10/23 06:31:18;;;;;;;;;;;;;;;4.62;78.82;99593.34;5104251;28;19934;-65
2022/10/23 06:33:44;;;;;;;;;;;;;;;4.74;78.49;99585.19;5088374;28;19928;-65
2022/10/23 06:36:11;;;;;;;;;;;;;;;4.85;78.20;99588.09;5088030;28;20306;-65
2022/10/23 06:38:40;;;;;;;;;;;;;;;4.91;77.63;99576.28;5104294;28;19989;-65
2022/10/23 06:41:11;;;;;;;;;;;;;;;4.87;77.61;99573.25;5106481;28;19934;-65
2022/10/23 06:43:38;;;;;;;;;;;;;;;4.85;77.73;99566.41;5107404;28;20436;-66
2022/10/23 06:46:17;;;;;;;;;;;;;;;4.80;77.77;99567.13;5105917;28;19939;-64
2022/10/23 06:49:03;;;;;;;;;;;;;;;4.91;77.63;99566.28;5107253;28;19927;-65
2022/10/23 06:51:32;;;;;;;;;;;;;;;4.92;77.58;99562.50;5107974;28;19928;-65
2022/10/23 06:53:58;;;;;;;;;;;;;;;5.04;77.53;99553.50;5106293;28;19934;-65
2022/10/23 06:56:50;;;;;;;;;;;;;;;5.10;76.87;99552.50;5105991;28;19934;-65
2022/10/23 06:59:31;;;;;;;;;;;;;;;5.15;76.79;99544.47;5090750;28;19935;-63
2022/10/23 07:01:57;;;;;;;;;;;;;;;5.22;76.65;99553.25;5107864;28;20039;-66
2022/10/23 07:04:24;;;;;;;;;;;;;;;5.29;76.55;99554.97;5105966;28;19955;-63
2022/10/23 07:06:50;;;;;;;;;;;;;;;5.21;76.20;99550.78;5105505;28;19928;-64
2022/10/23 07:09:22;;;;;;;;;;;;;;;5.18;76.64;99543.97;5104673;28;19928;-63
2022/10/23 07:11:51;;;;;;;;;;;;;;;5.26;76.68;99529.19;5104024;28;20356;-63
2022/10/23 07:14:18;;;;;;;;;;;;;;;5.35;76.50;99533.13;5067509;28;19928;-63
2022/10/23 07:16:46;;;;;;;;;;;;;;;5.40;76.40;99532.41;5103570;28;20038;-64
2022/10/23 07:19:12;;;;;;;;;;;;;;;5.49;76.31;99525.50;5106391;28;19984;-63
2022/10/23 07:21:53;;;;;;;;;;;;;;;5.58;75.92;99525.91;5073083;28;20026;-64
2022/10/23 07:24:39;;;;;;;;;;;;;;;5.59;75.60;99527.53;5082493;28;19942;-64
2022/10/23 07:27:15;;;;;;;;;;;;;;;5.47;75.60;99527.63;5104841;28;19931;-65
2022/10/23 07:29:42;;;;;;;;;;;;;;;5.41;76.04;99525.91;5106389;28;19928;-65
2022/10/23 07:32:09;;;;;;;;;;;;;;;5.41;76.02;99534.03;5106125;28;19934;-65
2022/10/23 07:34:35;;;;;;;;;;;;;;;5.26;76.17;99531.91;5102904;28;20455;-65
2022/10/23 07:37:17;;;;;;;;;;;;;;;5.27;76.65;99522.72;5100631;28;19934;-65
2022/10/23 07:39:44;;;;;;;;;;;;;;;5.16;76.66;99520.88;5106287;28;20095;-65
2022/10/23 07:42:10;;;;;;;;;;;;;;;5.06;77.22;99525.06;5101251;28;20034;-65
2022/10/23 07:44:36;;;;;;;;;;;;;;;5.10;77.48;99522.69;5103634;28;19927;-65
2022/10/23 07:47:02;;;;;;;;;;;;;;;5.09;77.37;99516.47;5106347;28;20297;-65
2022/10/23 07:49:30;;;;;;;;;;;;;;;5.14;77.30;99514.91;5076405;28;19927;-65
2022/10/23 07:51:57;;;;;;;;;;;;;;;5.14;77.24;99506.75;5101940;28;19927;-65
2022/10/23 07:54:28;;;;;;;;;;;;;;;5.17;77.24;99519.81;5105370;28;19927;-65
2022/10/23 07:56:59;;;;;;;;;;;;;;;5.27;77.04;99511.03;5103312;28;19942;-65
2022/10/23 07:59:45;;;;;;;;;;;;;;;5.21;77.18;99510.97;5102636;28;19974;-65
2022/10/23 08:02:13;;;;;;;;;;;;;;;5.21;77.13;99510.97;5086978;28;19931;-65
2022/10/23 08:04:42;;;;;;;;;;;;;;;5.31;77.08;99523.03;5100963;28;20018;-66
2022/10/23 08:07:25;;;;;;;;;;;;;;;5.49;76.65;99509.22;5082523;28;19927;-65
2022/10/23 08:09:54;;;;;;;;;;;;;;;5.65;76.08;99515.69;5105225;28;19927;-65
2022/10/23 08:12:20;;;;;;;;;;;;;;;5.74;75.70;99513.38;5107666;28;19934;-65
2022/10/23 08:14:45;;;;;;;;;;;;;;;5.81;75.56;99513.19;5105143;28;19928;-65
2022/10/23 08:17:11;;;;;;;;;;;;;;;5.88;75.18;99515.72;5103847;28;20603;-66
2022/10/23 08:19:57;;;;;;;;;;;;;;;5.84;74.92;99515.41;5104546;28;19975;-66
2022/10/23 08:22:26;;;;;;;;;;;;;;;5.63;75.42;99515.13;5086779;28;19976;-65
2022/10/23 08:24:53;;;;;;;;;;;;;;;5.50;76.04;99513.56;5103437;28;20419;-65
2022/10/23 08:27:18;;;;;;;;;;;;;;;5.46;76.25;99512.41;5103850;28;19934;-63
2022/10/23 08:29:46;;;;;;;;;;;;;;;5.35;76.69;99508.72;5102475;28;19928;-64
2022/10/23 08:32:11;;;;;;;;;;;;;;;5.45;76.92;99502.63;5102427;28;19981;-65
2022/10/23 08:34:50;;;;;;;;;;;;;;;5.63;76.31;99508.88;5099914;28;20475;-64
2022/10/23 08:37:17;;;;;;;;;;;;;;;5.67;76.02;99510.81;5098701;28;19928;-64
2022/10/23 08:39:43;;;;;;;;;;;;;;;5.68;76.21;99501.63;4746579;28;9999652;-64
2022/10/23 08:42:18;;;;;;;;;;;;;;;5.80;75.87;99500.69;5098101;28;19927;-64
2022/10/23 08:44:47;;;;;;;;;;;;;;;5.72;76.11;99501.94;5097911;28;19931;-64
2022/10/23 08:47:16;;;;;;;;;;;;;;;5.78;76.07;99498.25;5097674;28;19963;-64
2022/10/23 08:49:54;;;;;;;;;;;;;;;5.88;75.79;99499.44;5097754;28;19928;-63
2022/10/23 08:52:25;;;;;;;;;;;;;;;5.89;75.61;99496.50;5096604;28;19935;-64
2022/10/23 08:54:58;;;;;;;;;;;;;;;5.91;75.79;99496.22;5099498;28;20376;-64
2022/10/23 08:57:32;;;;;;;;;;;;;;;5.96;75.75;99485.44;5096559;28;19950;-65
2022/10/23 08:59:59;;;;;;;;;;;;;;;5.95;75.60;99486.53;5101302;28;19927;-65
2022/10/23 09:02:26;;;;;;;;;;;;;;;5.85;75.98;99478.25;5079496;28;20042;-65
2022/10/23 09:04:53;;;;;;;;;;;;;;;5.73;76.21;99478.38;5098499;27;20449;-65
2022/10/23 09:07:25;;;;;;;;;;;;;;;5.70;76.68;99476.97;5096622;28;20465;-65
2022/10/23 09:09:59;;;;;;;;;;;;;;;5.69;76.84;99469.91;5102838;28;19927;-68
2022/10/23 09:12:27;;;;;;;;;;;;;;;5.60;77.21;99476.81;5100995;28;19932;-65
2022/10/23 09:15:01;;;;;;;;;;;;;;;5.62;77.26;99463.81;5102151;28;20010;-65
2022/10/23 09:17:30;;;;;;;;;;;;;;;5.66;77.40;99465.78;5098637;28;20406;-65
2022/10/23 09:20:00;;;;;;;;;;;;;;;5.68;77.20;99468.25;5103309;28;20251;-65
2022/10/23 09:22:27;;;;;;;;;;;;;;;5.53;77.78;99458.84;5103940;28;20004;-65
2022/10/23 09:24:53;;;;;;;;;;;;;;;5.55;78.03;99458.59;5099531;28;19932;-66
2022/10/23 09:27:19;;;;;;;;;;;;;;;5.58;78.05;99458.09;5097855;28;20034;-70
2022/10/23 09:29:47;;;;;;;;;;;;;;;5.65;77.93;99452.50;5077681;28;19965;-65
2022/10/23 09:32:12;;;;;;;;;;;;;;;5.61;77.84;99451.31;5100774;27;19927;-64
2022/10/23 09:34:48;;;;;;;;;;;;;;;5.53;78.17;99456.13;5109259;27;20318;-64
2022/10/23 09:37:19;;;;;;;;;;;;;;;5.47;78.48;99451.72;5104055;28;19932;-65
2022/10/23 09:39:47;;;;;;;;;;;;;;;5.44;78.78;99446.75;5104933;28;19928;-65
2022/10/23 09:42:19;;;;;;;;;;;;;;;5.45;79.00;99445.69;5102888;28;19993;-65
2022/10/23 09:44:46;;;;;;;;;;;;;;;5.56;78.85;99445.84;5081409;28;19939;-65
2022/10/23 09:47:17;;;;;;;;;;;;;;;5.55;78.88;99439.63;5084793;28;20368;-64
2022/10/23 09:49:46;;;;;;;;;;;;;;;5.61;78.80;99441.31;5100746;28;20429;-64
2022/10/23 09:52:21;;;;;;;;;;;;;;;5.62;79.05;99436.69;5103140;28;19970;-65
2022/10/23 09:54:49;;;;;;;;;;;;;;;5.66;78.85;99430.50;5102324;28;20391;-66
2022/10/23 09:57:20;;;;;;;;;;;;;;;5.65;79.00;99428.88;5106669;28;20318;-65
2022/10/23 09:59:49;;;;;;;;;;;;;;;5.66;78.84;99422.38;5086433;28;19996;-65
2022/10/23 10:02:18;;;;;;;;;;;;;;;5.74;78.78;99423.03;5102875;28;19985;-66
2022/10/23 10:04:56;;;;;;;;;;;;;;;5.82;78.74;99425.28;5104232;28;19928;-66
2022/10/23 10:07:23;;;;;;;;;;;;;;;5.90;78.61;99419.44;5103596;28;19927;-65
2022/10/23 10:09:51;;;;;;;;;;;;;;;5.90;78.43;99421.31;5102590;28;19928;-65
2022/10/23 10:12:22;;;;;;;;;;;;;;;5.88;78.58;99413.44;5103746;28;19961;-66
2022/10/23 10:14:55;;;;;;;;;;;;;;;5.87;78.58;99414.50;5103053;28;19957;-65
2022/10/23 10:17:29;;;;;;;;;;;;;;;5.92;78.74;99413.72;5104905;28;20030;-66
2022/10/23 10:20:02;;;;;;;;;;;;;;;5.92;78.55;99406.44;5106095;28;19959;-66
2022/10/23 10:22:34;;;;;;;;;;;;;;;5.90;78.68;99405.03;5108335;28;20303;-66
2022/10/23 10:25:06;;;;;;;;;;;;;;;5.90;79.06;99402.31;5106430;28;19927;-65
2022/10/23 10:27:41;;;;;;;;;;;;;;;5.86;79.18;99399.31;5097204;28;20497;-65
2022/10/23 10:30:11;;;;;;;;;;;;;;;5.84;79.30;99397.91;5103166;28;19939;-65
2022/10/23 10:32:39;;;;;;;;;;;;;;;5.80;79.67;99405.72;5106667;28;20444;-64
2022/10/23 10:35:15;;;;;;;;;;;;;;;5.74;79.93;99401.31;5106540;28;19939;-64
2022/10/23 10:37:49;;;;;;;;;;;;;;;5.74;80.18;99396.69;5108366;28;20043;-65
2022/10/23 10:40:20;;;;;;;;;;;;;;;5.75;80.34;99395.63;5108249;28;19928;-64
2022/10/23 10:42:57;;;;;;;;;;;;;;;5.71;80.68;99389.06;5103885;28;19927;-64
2022/10/23 10:45:30;;;;;;;;;;;;;;;5.64;81.07;99386.56;5107046;28;19928;-64
2022/10/23 10:48:14;;;;;;;;;;;;;;;5.59;81.31;99375.66;5107653;28;19932;-64
2022/10/23 10:51:01;;;;;;;;;;;;;;;5.59;81.32;99378.34;5108541;28;20064;-66
2022/10/23 10:53:47;;;;;;;;;;;;;;;5.62;81.43;99366.16;5105135;28;19928;-66
2022/10/23 10:56:16;;;;;;;;;;;;;;;5.65;81.48;99363.78;5105249;28;19951;-66
2022/10/23 10:58:44;;;;;;;;;;;;;;;5.73;81.33;99365.22;5105639;28;20122;-66
2022/10/23 11:01:13;;;;;;;;;;;;;;;5.84;80.96;99362.63;5102573;28;19988;-66
2022/10/23 11:03:41;;;;;;;;;;;;;;;5.80;80.83;99359.59;5107010;28;19935;-66
2022/10/23 11:06:11;;;;;;;;;;;;;;;5.76;81.01;99355.78;5102142;28;19928;-66
2022/10/23 11:08:37;;;;;;;;;;;;;;;5.79;81.25;99353.38;5105558;28;19935;-67
2022/10/23 11:11:06;;;;;;;;;;;;;;;5.76;81.05;99345.72;5107743;28;19927;-67
2022/10/23 11:13:35;;;;;;;;;;;;;;;5.78;81.15;99342.75;5107931;28;19928;-67
2022/10/23 11:16:03;;;;;;;;;;;;;;;5.80;81.04;99341.44;5104574;28;19928;-67
2022/10/23 11:18:29;;;;;;;;;;;;;;;5.76;80.99;99334.88;5106815;27;19928;-67
2022/10/23 11:21:06;;;;;;;;;;;;;;;5.68;81.38;99340.75;5104363;28;19931;-65
2022/10/23 11:23:51;;;;;;;;;;;;;;;5.65;81.83;99330.44;5104798;28;20030;-65
2022/10/23 11:26:25;;;;;;;;;;;;;;;5.63;82.21;99332.56;5102834;28;20014;-65
2022/10/23 11:29:02;;;;;;;;;;;;;;;5.60;82.38;99327.63;5105063;28;19927;-65
2022/10/23 11:31:35;;;;;;;;;;;;;;;5.58;82.66;99322.47;5085538;28;19935;-65
2022/10/23 11:34:14;;;;;;;;;;;;;;;5.63;82.75;99319.81;5101438;28;19935;-65
2022/10/23 11:36:41;;;;;;;;;;;;;;;5.71;82.88;99310.41;5097010;28;20395;-65
2022/10/23 11:39:15;;;;;;;;;;;;;;;5.77;82.68;99314.81;5104142;28;19928;-68
2022/10/23 11:41:46;;;;;;;;;;;;;;;5.81;82.75;99307.81;5099722;28;20031;-67
2022/10/23 11:44:23;;;;;;;;;;;;;;;5.80;82.89;99308.06;5101318;28;19946;-68
2022/10/23 11:46:58;;;;;;;;;;;;;;;5.78;82.88;99305.63;5101023;28;20030;-68
2022/10/23 11:49:24;;;;;;;;;;;;;;;5.78;82.80;99302.91;5102075;28;19934;-68
2022/10/23 11:51:58;;;;;;;;;;;;;;;5.74;82.85;99299.03;5102614;28;20718;-67
2022/10/23 11:54:25;;;;;;;;;;;;;;;5.77;83.13;99301.25;5103490;28;20310;-65
2022/10/23 11:56:53;;;;;;;;;;;;;;;5.79;83.08;99296.41;4750231;28;10000255;-67
2022/10/23 11:59:25;;;;;;;;;;;;;;;5.81;83.23;99286.09;5098442;28;20387;-68
2022/10/23 12:01:52;;;;;;;;;;;;;;;5.85;83.19;99288.31;5100551;28;20119;-68
2022/10/23 12:04:21;;;;;;;;;;;;;;;5.84;83.15;99284.75;5084011;28;20379;-68
2022/10/23 12:06:48;;;;;;;;;;;;;;;5.78;83.54;99283.09;5099826;28;19927;-68
2022/10/23 12:09:22;;;;;;;;;;;;;;;5.71;83.97;99280.56;5100813;28;19935;-67
2022/10/23 12:11:59;;;;;;;;;;;;;;;5.66;84.27;99283.22;5100679;28;19928;-68
2022/10/23 12:14:31;;;;;;;;;;;;;;;5.40;84.59;99253.13;5102510;28;19932;-68
2022/10/23 12:16:57;;;;;;;;;;;;;;;5.64;84.79;99290.81;5097760;28;20023;-67
2022/10/23 12:19:24;;;;;;;;;;;;;;;5.63;84.97;99289.19;5106050;28;20373;-68
2022/10/23 12:21:51;;;;;;;;;;;;;;;5.64;85.00;99290.81;5106704;28;19934;-66
2022/10/23 12:24:28;;;;;;;;;;;;;;;5.66;85.03;99285.94;5078095;28;20027;-68
2022/10/23 12:26:59;;;;;;;;;;;;;;;5.70;85.04;99281.66;5093756;27;19934;-68
2022/10/23 12:29:43;;;;;;;;;;;;;;;5.70;84.80;99286.22;5094605;28;19939;-68
2022/10/23 12:32:18;;;;;;;;;;;;;;;5.70;84.87;99280.81;5091462;28;20243;-66
2022/10/23 12:34:46;;;;;;;;;;;;;;;5.64;85.03;99285.38;5102648;28;20607;-65
2022/10/23 12:37:22;;;;;;;;;;;;;;;5.58;85.24;99286.38;5092242;28;19967;-65
2022/10/23 12:39:51;;;;;;;;;;;;;;;5.60;85.38;99281.53;5087023;28;19972;-65
2022/10/23 12:42:20;;;;;;;;;;;;;;;5.63;85.18;99281.03;5089952;28;19934;-65
2022/10/23 12:44:56;;;;;;;;;;;;;;;5.66;85.26;99266.97;5096635;28;19932;-67
2022/10/23 12:47:23;;;;;;;;;;;;;;;5.69;85.02;99266.44;5104089;28;19928;-68
2022/10/23 12:49:49;;;;;;;;;;;;;;;5.73;85.03;99259.44;5103426;28;19980;-67
2022/10/23 12:52:17;;;;;;;;;;;;;;;5.80;84.96;99259.22;5107842;28;19990;-65
2022/10/23 12:54:43;;;;;;;;;;;;;;;5.83;84.73;99261.41;5107603;27;20310;-65
2022/10/23 12:57:20;;;;;;;;;;;;;;;5.82;84.80;99262.50;5104724;28;20034;-68
2022/10/23 12:59:45;;;;;;;;;;;;;;;5.79;84.82;99257.59;5103305;28;19928;-67
2022/10/23 13:02:21;;;;;;;;;;;;;;;5.79;84.94;99257.59;5104413;28;19973;-68
2022/10/23 13:04:49;;;;;;;;;;;;;;;5.75;84.94;99251.84;5104742;27;19938;-65
2022/10/23 13:07:17;;;;;;;;;;;;;;;5.76;85.12;99247.25;5098949;28;20107;-65
2022/10/23 13:09:44;;;;;;;;;;;;;;;5.75;85.12;99243.72;5099171;28;19975;-68
2022/10/23 13:12:19;;;;;;;;;;;;;;;5.78;85.14;99245.09;5086242;28;19932;-68
2022/10/23 13:14:53;;;;;;;;;;;;;;;5.75;85.18;99240.19;5093423;28;20430;-68